METAR Data
IDs: Format: Raw Decoded Include TAF

Data at: 2137 UTC 10 May 2021

KBJC 102131Z 34012KT 5SM -RA OVC007 05/04 A3002
KBJC 102050Z 35009KT 10SM OVC011 07/05 A3002
KBJC 101958Z 00000KT 10SM OVC022 07/03 A3002
KBJC 101859Z 00000KT 10SM BKN012 OVC020 07/04 A3003
KBJC 101745Z 31005KT 10SM -RA BKN009 OVC012 07/04 A3004
KBJC 101649Z 03004KT 5SM -RA BKN005 OVC012 05/03 A3005
KBJC 101559Z 32004KT 5SM -RA BKN005 OVC012 04/03 A3005
KBJC 101455Z 36007KT 5SM -RA BKN004 OVC012 04/04 A3006
KBJC 101356Z 36007KT 5SM BKN004 OVC028 04/04 A3006
KBJC 101245Z 35008KT 5SM BKN004 OVC028 04/04 A3005
KBJC 101235Z AUTO 35009KT 10SM OVC004 04/03 A3006 RMK AO2
KBJC 101215Z AUTO 35008KT 10SM OVC004 04/03 A3006 RMK AO2
KBJC 101155Z 34007KT 5SM BKN004 OVC028 04/04 A3005
KBJC 101135Z AUTO 36006KT 10SM BKN004 BKN007 OVC028 04/03 A3006 RMK AO2
KBJC 101115Z AUTO 35008KT 10SM BKN004 OVC014 05/03 A3005 RMK AO2
KBJC 101055Z AUTO 35008KT 10SM SCT004 SCT009 OVC028 05/03 A3005 RMK AO2
KBJC 101035Z AUTO 36007KT 10SM OVC028 05/03 A3006 RMK AO2
KBJC 101015Z AUTO 01006KT 10SM OVC030 05/03 A3006 RMK AO2
KBJC 100955Z AUTO 02004KT 10SM OVC030 06/03 A3006 RMK AO2
KBJC 100935Z AUTO 01006KT 10SM -DZ OVC030 06/03 A3006 RMK AO2
KBJC 100915Z AUTO 36005KT 10SM -DZ OVC030 06/03 A3006 RMK AO2
KBJC 100855Z AUTO 36006KT 10SM BKN029 BKN037 OVC050 06/04 A3006 RMK AO2
KBJC 100835Z AUTO 36004KT 10SM SCT027 BKN050 OVC080 06/04 A3006 RMK AO2
KBJC 100815Z AUTO 02006KT 10SM -DZ SCT044 BKN050 OVC070 06/04 A3007 RMK AO2
KBJC 100755Z AUTO 36005KT 10SM OVC046 06/04 A3008 RMK AO2
KBJC 100735Z AUTO 01007KT 10SM OVC050 06/04 A3008 RMK AO2
KBJC 100715Z AUTO 02006KT 10SM -RA OVC050 06/02 A3009 RMK AO2 LTG DSNT S
KBJC 100655Z AUTO 00000KT 10SM -RA OVC050 07/01 A3009 RMK AO2 LTG DSNT S
KBJC 100635Z AUTO 12003KT 10SM -RA SCT043 OVC050 07/01 A3009 RMK AO2
KBJC 100615Z AUTO 13004KT 10SM OVC048 07/01 A3009 RMK AO2
KBJC 100555Z AUTO 14005KT 10SM BKN048 OVC060 07/01 A3009 RMK AO2
KBJC 100535Z AUTO 14004KT 10SM BKN047 BKN060 OVC075 07/02 A3009 RMK AO2
KBJC 100515Z AUTO 10004KT 10SM SCT028 SCT034 OVC045 07/02 A3009 RMK AO2 LTG DSNT S
KBJC 100345Z 00000KT 10SM -RA OVC029 07/04 A3010
KBJC 100247Z 20003KT 10SM -RA OVC029 07/04 A3009
KBJC 100149Z 17005KT 10SM -RA OVC029 07/03 A3007
KBJC 100045Z 16005KT 10SM -RA OVC029 07/03 A3006
KBJC 092359Z 13006KT 10SM OVC033 08/02 A3007
KBJC 092259Z 09008KT 10SM OVC036 08/02 A3005
KBJC 092145Z 16010KT 10SM OVC036 08/01 A3005
KBJC 092046Z 15011KT 10SM OVC033 08/01 A3006
KBJC 091950Z 16010KT 10SM FEW030 BKN050 08/01 A3007
KBJC 091845Z 16010KT 10SM BKN060 09/00 A3007
KBJC 091745Z 16006G15KT 10SM SCT060 BKN120 08/M02 A3009
KBJC 091659Z 12006KT 10SM SCT040 BKN150 09/M01 A3010
KBJC 091545Z 19009KT 10SM BKN040 07/01 A3011
KBJC 091459Z 20008KT 10SM OVC040 05/01 A3012
KBJC 091359Z 20006KT 10SM OVC040 04/02 A3012
KBJC 091245Z 23007KT 10SM SCT008 BKN030 03/02 A3010
KBJC 091235Z AUTO 23004KT 10SM -DZ OVC037 03/02 A3010 RMK AO2
KBJC 091215Z AUTO 23005KT 10SM -RA SCT014 OVC037 03/02 A3010 RMK AO2
KBJC 091155Z AUTO 22003KT 7SM -DZ BKN012 OVC037 03/02 A3010 RMK AO2
KBJC 091135Z AUTO 16003KT 10SM -DZ BKN014 BKN019 OVC032 03/01 A3010 RMK AO2
KBJC 091115Z AUTO 00000KT 10SM -RA SCT023 OVC032 03/02 A3009 RMK AO2
KBJC 091055Z AUTO 00000KT 10SM OVC032 03/02 A3009 RMK AO2
KBJC 091035Z AUTO 00000KT 10SM OVC030 03/02 A3009 RMK AO2
KBJC 091015Z AUTO 00000KT 10SM OVC030 03/02 A3009 RMK AO2
KBJC 090955Z AUTO 01006KT 10SM -DZ OVC028 03/02 A3009 RMK AO2